Lawson Army Air Field (Fort Benning)
KLSF : now visible

Airfield :











YOU CAN JOIN US ON...

 
LOGIN :

Register | Disclaimer

   EN    FR    IT 

 









Legend :    VFR   Marginal VFR   IFR   Intensive IFR   Very Intensive IFR
Visi :
Ceiling :
>= 8 km
>= 3000ft
5 to 8 km
1000 to 3000 ft
1500m to 5 km
500 to 1000 ft
800 to 1500m
200 to 500 ft
< 800m
< 200 ft
Symbols :   Thunderstorms  Fog  Heavy snow  Heavy precipitations  Wind > 20 kt






- Airport Elevation : 232 ft


KLSF - Lawson Army Air Field (Fort Benning)

EXPIRED METARs :
  • 282055Z AUTO 31006KT 10SM SCT070 32/17 A2996 RMK AO2 SLP148 T03210168 57014 RVRNO VISNO RWY33 $
  • 281955Z AUTO 32009KT 10SM CLR 32/17 A2997 RMK AO2 SLP152 T03200171 RVRNO VISNO RWY33 $
  • 281855Z AUTO 27009KT 10SM FEW190 FEW220 32/17 A2998 RMK AO2 SLP155 T03160167 RVRNO VISNO RWY33 $

TAF TAF KLSF
Valid from the 28 at 21:00 until the 30 at 03:00 UTC


282100Z 2821/3003 30010G16KT 9999 FEW050 FEW065 510052 QNH2994INS
BECMG 2823/2824 32003KT 9999 SKC QNH2998INS
BECMG 2903/2904 00000KT 4800 BR SKC QNH3001INS
TEMPO 2906/2908 3200 BR
BECMG 2908/2909 00000KT 1600 BR SKC QNH3005INS
TEMPO 2909/2913 0800 FG
BECMG 2913/2914 32004KT 9999 NSW SKC 510052 QNH3013INS
BECMG 2915/2916 33010G16KT 9999 FEW040 FEW060 SCT120 510052 QNH3003INS
TEMPO 2915/2923 30012G20KT
BECMG 2922/2923 30004KT 9999 FEW080 SCT140 SCT200 QNH3004INS TX32/2921Z TN13/2910Z
KZTL FIR / North America



MET'MAP, your aeronautical weather chart ! - Copyright ORBIFLY December 2007 - Disclaimer

ORBIFLY MET'MAP TEAM :

Programming & Development : Alexandra Zaïnal
Original concept : Baudouin d'Aumeries
Technical & hardware support : Manuel Goepfert
Assistance : Marc-Olivier Méhu




SOURCES & CREDITS :

   NOAA       Earth
Advisory